Time;durP1;ratioP1;P1;durP2;ratioP2;P2;SDS_P1;SDS_P2;PMS_P1;PMS_P2;Temp;Humidity;BMP_temperature;BMP_pressure;BME280_temperature;BME280_humidity;BME280_pressure;Samples;Min_cycle;Max_cycle;Signal;HPM_P1;HPM_P2
2021/09/24 00:00:07;;;;;;;;;;;;;;;15.09;66.09;97181.83;1823417;78;20160;-82
2021/09/24 00:02:35;;;;;;;;;;;;;;;15.08;66.13;97186.48;1823313;78;20109;-82
2021/09/24 00:05:01;;;;;;;;;;;;;;;15.15;65.60;97188.70;1823547;78;20195;-82
2021/09/24 00:07:27;;;;;;;;;;;;;;;15.15;66.06;97195.53;1823239;78;20238;-82
2021/09/24 00:09:52;;;;;;;;;;;;;;;15.17;66.14;97201.45;1823573;78;20187;-82
2021/09/24 00:12:18;;;;;;;;;;;;;;;15.14;66.31;97209.73;1823439;78;20307;-82
2021/09/24 00:14:44;;;;;;;;;;;;;;;15.12;66.56;97208.45;1823463;78;21189;-82
2021/09/24 00:17:10;;;;;;;;;;;;;;;15.12;66.44;97207.08;1823386;78;20177;-82
2021/09/24 00:19:36;;;;;;;;;;;;;;;15.08;66.48;97208.88;1793787;78;20148;-82
2021/09/24 00:22:02;;;;;;;;;;;;;;;15.08;66.53;97217.86;1823924;78;20259;-82
2021/09/24 00:24:28;;;;;;;;;;;;;;;15.10;66.26;97222.98;1823560;78;20267;-82
2021/09/24 00:26:53;;;;;;;;;;;;;;;15.11;66.29;97215.83;1823548;78;21041;-82
2021/09/24 00:29:19;;;;;;;;;;;;;;;15.11;66.26;97205.48;1823594;78;20144;-82
2021/09/24 00:31:45;;;;;;;;;;;;;;;15.05;66.53;97200.00;1823561;78;20180;-82
2021/09/24 00:34:11;;;;;;;;;;;;;;;15.02;66.67;97202.80;1823559;78;20168;-82
2021/09/24 00:36:36;;;;;;;;;;;;;;;14.97;67.02;97200.27;1823559;78;20191;-82
2021/09/24 00:39:02;;;;;;;;;;;;;;;14.97;67.04;97201.64;1823500;78;21084;-82
2021/09/24 00:41:28;;;;;;;;;;;;;;;14.93;67.30;97206.92;1823472;78;20188;-82
2021/09/24 00:43:54;;;;;;;;;;;;;;;14.92;67.91;97209.98;1823322;78;20291;-82
2021/09/24 00:46:20;;;;;;;;;;;;;;;14.92;68.38;97212.15;1793821;78;20235;-83
2021/09/24 00:48:46;;;;;;;;;;;;;;;14.92;68.39;97212.15;1823588;78;20212;-82
2021/09/24 00:51:14;;;;;;;;;;;;;;;14.90;68.74;97210.88;1819835;78;20142;-82
2021/09/24 00:53:41;;;;;;;;;;;;;;;14.85;68.99;97216.51;1793665;78;20185;-82
2021/09/24 00:56:08;;;;;;;;;;;;;;;14.80;69.13;97215.34;1823256;78;20154;-82
2021/09/24 00:58:34;;;;;;;;;;;;;;;14.81;69.30;97217.73;1823605;78;20362;-82
2021/09/24 01:01:02;;;;;;;;;;;;;;;14.79;69.22;97214.54;1823201;78;20161;-82
2021/09/24 01:03:29;;;;;;;;;;;;;;;14.77;69.40;97215.41;1823772;78;21120;-82
2021/09/24 01:05:57;;;;;;;;;;;;;;;14.76;69.30;97213.81;1812450;78;20086;-82
2021/09/24 01:08:25;;;;;;;;;;;;;;;14.78;69.60;97214.84;1813249;79;20131;-82
2021/09/24 01:10:54;;;;;;;;;;;;;;;14.78;69.74;97218.93;1786743;79;20146;-82
2021/09/24 01:13:22;;;;;;;;;;;;;;;14.79;70.18;97229.54;1816889;79;20193;-82
2021/09/24 01:15:49;;;;;;;;;;;;;;;14.74;70.16;97235.16;1817472;79;20094;-82
2021/09/24 01:18:16;;;;;;;;;;;;;;;14.68;71.39;97233.16;1817291;79;20142;-82
2021/09/24 01:20:44;;;;;;;;;;;;;;;14.59;72.32;97216.59;1817321;79;20570;-82
2021/09/24 01:23:11;;;;;;;;;;;;;;;14.44;73.15;97211.08;1817184;79;20520;-82
2021/09/24 01:25:40;;;;;;;;;;;;;;;14.34;72.60;97205.95;1817000;79;20394;-83
2021/09/24 01:28:07;;;;;;;;;;;;;;;14.23;73.84;97217.75;1816859;79;20187;-82
2021/09/24 01:30:35;;;;;;;;;;;;;;;14.14;74.90;97215.60;1817070;79;20094;-82
2021/09/24 01:33:03;;;;;;;;;;;;;;;14.08;75.00;97217.67;1817345;79;20147;-82
2021/09/24 01:35:32;;;;;;;;;;;;;;;14.01;75.15;97218.72;1816835;79;20378;-82
2021/09/24 01:38:01;;;;;;;;;;;;;;;14.02;77.02;97212.73;1813464;79;20422;-83
2021/09/24 01:40:30;;;;;;;;;;;;;;;13.97;77.07;97209.60;1786822;79;21130;-82
2021/09/24 01:42:58;;;;;;;;;;;;;;;13.91;76.62;97214.16;1817187;79;20090;-82
2021/09/24 01:45:25;;;;;;;;;;;;;;;13.87;76.80;97208.56;1817618;79;20141;-82
2021/09/24 01:47:53;;;;;;;;;;;;;;;13.83;76.90;97208.39;1817153;79;20151;-82
2021/09/24 01:50:22;;;;;;;;;;;;;;;13.81;77.70;97206.55;1786276;79;20426;-82
2021/09/24 01:52:49;;;;;;;;;;;;;;;13.81;77.90;97203.03;1817125;79;20173;-82
2021/09/24 01:55:18;;;;;;;;;;;;;;;13.79;78.13;97192.47;1816462;79;20395;-82
2021/09/24 01:57:47;;;;;;;;;;;;;;;13.81;78.03;97191.58;1814711;79;20397;-82
2021/09/24 02:00:15;;;;;;;;;;;;;;;13.81;78.30;97207.91;1817536;79;20094;-82
2021/09/24 02:02:42;;;;;;;;;;;;;;;13.85;78.10;97220.91;1817376;79;20134;-82
2021/09/24 02:05:09;;;;;;;;;;;;;;;13.83;78.55;97211.67;1817400;79;21124;-82
2021/09/24 02:07:35;;;;;;;;;;;;;;;13.77;78.48;97215.13;1817210;78;20119;-82
2021/09/24 02:10:04;;;;;;;;;;;;;;;13.74;79.18;97215.75;1817600;79;20134;-82
2021/09/24 02:12:33;;;;;;;;;;;;;;;13.72;79.10;97214.48;1817007;79;20421;-82
2021/09/24 02:15:01;;;;;;;;;;;;;;;13.74;79.04;97217.67;1817226;79;20224;-82
2021/09/24 02:17:33;;;;;;;;;;;;;;;13.76;78.88;97216.26;1816818;79;20401;-82
2021/09/24 02:20:00;;;;;;;;;;;;;;;13.81;78.83;97222.09;1785540;79;20127;-82
2021/09/24 02:22:28;;;;;;;;;;;;;;;13.79;78.94;97219.69;1814186;79;20406;-81
2021/09/24 02:24:56;;;;;;;;;;;;;;;13.78;78.89;97226.27;1813346;79;20126;-82
2021/09/24 02:27:29;;;;;;;;;;;;;;;13.79;78.65;97214.81;1817634;79;20134;-82
2021/09/24 02:29:57;;;;;;;;;;;;;;;13.78;79.04;97221.38;1816652;79;20126;-82
2021/09/24 02:32:25;;;;;;;;;;;;;;;13.79;78.36;97219.69;1817138;79;20445;-82
2021/09/24 02:34:51;;;;;;;;;;;;;;;13.81;78.22;97232.98;1785837;79;20708;-82
2021/09/24 02:37:17;;;;;;;;;;;;;;;13.83;78.43;97224.72;1817274;79;20671;-82
2021/09/24 02:39:43;;;;;;;;;;;;;;;13.85;78.45;97215.47;1817319;79;20237;-82
2021/09/24 02:42:08;;;;;;;;;;;;;;;13.88;78.57;97193.03;1817437;79;21070;-82
2021/09/24 02:44:34;;;;;;;;;;;;;;;13.86;78.41;97187.91;1817441;79;20172;-82
2021/09/24 02:47:00;;;;;;;;;;;;;;;13.84;78.31;97194.20;1786038;79;21077;-82
2021/09/24 02:49:26;;;;;;;;;;;;;;;13.84;78.44;97191.48;1817514;79;20157;-82
2021/09/24 02:51:52;;;;;;;;;;;;;;;13.85;78.03;97189.03;1817579;79;20240;-82
2021/09/24 02:54:17;;;;;;;;;;;;;;;13.88;77.85;97199.27;1817516;79;21128;-82
2021/09/24 02:56:43;;;;;;;;;;;;;;;13.94;77.97;97205.37;1817445;79;20164;-82
2021/09/24 02:59:09;;;;;;;;;;;;;;;13.98;78.06;97209.84;1817553;79;20188;-82
2021/09/24 03:01:35;;;;;;;;;;;;;;;13.96;78.21;97232.52;1817565;79;20156;-82
2021/09/24 03:04:01;;;;;;;;;;;;;;;13.98;78.31;97260.79;1817264;79;20180;-83
2021/09/24 03:06:26;;;;;;;;;;;;;;;14.01;78.38;97286.81;1786183;79;21955;-82
2021/09/24 03:08:52;;;;;;;;;;;;;;;14.11;79.39;97283.00;1817219;79;20263;-82
2021/09/24 03:11:18;;;;;;;;;;;;;;;14.16;78.77;97290.20;1817589;79;20203;-82
2021/09/24 03:13:44;;;;;;;;;;;;;;;14.16;79.50;97300.53;1817473;79;20468;-82
2021/09/24 03:16:11;;;;;;;;;;;;;;;14.13;80.56;97292.20;1817619;79;20217;-82
2021/09/24 03:18:37;;;;;;;;;;;;;;;14.10;80.22;97303.99;1817270;79;21107;-82
2021/09/24 03:21:03;;;;;;;;;;;;;;;13.99;82.48;97307.33;1817307;79;20220;-83
2021/09/24 03:23:29;;;;;;;;;;;;;;;13.99;81.30;97313.58;1817527;79;20223;-83
2021/09/24 03:25:54;;;;;;;;;;;;;;;13.93;81.62;97301.78;1817428;79;20212;-82
2021/09/24 03:28:20;;;;;;;;;;;;;;;13.87;81.89;97298.99;1817428;79;20172;-82
2021/09/24 03:30:46;;;;;;;;;;;;;;;13.81;82.41;97296.41;1817435;79;21037;-83
2021/09/24 03:33:12;;;;;;;;;;;;;;;13.76;82.29;97300.66;1817388;79;20200;-83
2021/09/24 03:35:38;;;;;;;;;;;;;;;13.74;81.54;97306.16;1817506;79;20161;-82
2021/09/24 03:38:03;;;;;;;;;;;;;;;13.72;82.05;97307.05;1817682;79;20161;-83
2021/09/24 03:40:29;;;;;;;;;;;;;;;13.72;82.37;97311.93;1785899;79;20160;-83
2021/09/24 03:42:55;;;;;;;;;;;;;;;13.72;82.33;97326.91;1817583;79;21142;-83
2021/09/24 03:45:21;;;;;;;;;;;;;;;13.71;83.08;97334.83;1817943;79;20181;-82
2021/09/24 03:47:47;;;;;;;;;;;;;;;13.70;83.04;97321.54;1817391;79;20172;-82
2021/09/24 03:50:12;;;;;;;;;;;;;;;13.64;84.88;97332.33;1817462;79;20164;-83
2021/09/24 03:52:38;;;;;;;;;;;;;;;13.61;84.00;97324.23;1817644;79;20200;-83
2021/09/24 03:55:04;;;;;;;;;;;;;;;13.61;83.80;97343.86;1817942;79;21175;-83
2021/09/24 03:57:30;;;;;;;;;;;;;;;13.57;84.86;97351.03;1817385;79;20130;-82
2021/09/24 03:59:56;;;;;;;;;;;;;;;13.53;85.28;97353.03;1817610;79;20204;-82
2021/09/24 04:02:22;;;;;;;;;;;;;;;13.52;84.63;97354.71;1817603;79;20128;-82
2021/09/24 04:04:48;;;;;;;;;;;;;;;13.56;84.07;97348.87;1817741;79;20149;-82
2021/09/24 04:07:15;;;;;;;;;;;;;;;13.51;84.13;97361.28;1818774;78;21086;-82
2021/09/24 04:09:41;;;;;;;;;;;;;;;13.45;83.77;97353.00;1823415;78;20206;-83
2021/09/24 04:12:07;;;;;;;;;;;;;;;13.45;83.52;97365.24;1793877;78;20180;-83
2021/09/24 04:14:33;;;;;;;;;;;;;;;13.41;83.28;97365.61;1823965;78;20173;-83
2021/09/24 04:16:59;;;;;;;;;;;;;;;13.37;82.62;97376.33;1793819;78;20679;-83
2021/09/24 04:19:25;;;;;;;;;;;;;;;13.35;82.27;97360.08;1823640;78;21189;-83
2021/09/24 04:21:51;;;;;;;;;;;;;;;13.33;82.42;97356.32;1823536;78;20173;-82
2021/09/24 04:24:17;;;;;;;;;;;;;;;13.31;82.47;97375.41;1823468;78;20180;-82
2021/09/24 04:26:44;;;;;;;;;;;;;;;13.30;82.61;97388.78;1794323;78;20609;-82
2021/09/24 04:29:10;;;;;;;;;;;;;;;13.30;81.83;97398.30;1823246;78;20131;-82
2021/09/24 04:31:36;;;;;;;;;;;;;;;13.26;81.82;97399.49;1823503;78;21062;-82
2021/09/24 04:34:01;;;;;;;;;;;;;;;13.26;81.19;97409.81;1823245;78;20167;-82
2021/09/24 04:36:27;;;;;;;;;;;;;;;13.20;81.12;97411.05;1823766;78;20184;-82
2021/09/24 04:38:53;;;;;;;;;;;;;;;13.19;80.77;97416.25;1793485;78;20153;-82
2021/09/24 04:41:19;;;;;;;;;;;;;;;13.17;80.69;97406.21;1823548;78;20251;-82
2021/09/24 04:43:45;;;;;;;;;;;;;;;13.13;80.76;97401.13;1823247;78;21118;-82
2021/09/24 04:46:10;;;;;;;;;;;;;;;13.14;80.36;97404.09;1823570;78;20225;-82
2021/09/24 04:48:36;;;;;;;;;;;;;;;13.11;80.09;97410.17;1823420;78;20176;-82
2021/09/24 04:51:05;;;;;;;;;;;;;;;13.11;80.15;97406.09;1823365;78;20136;-82
2021/09/24 04:53:30;;;;;;;;;;;;;;;13.11;80.09;97420.24;1823423;78;20134;-82
2021/09/24 04:55:56;;;;;;;;;;;;;;;13.09;80.02;97423.84;1823514;78;21047;-82
2021/09/24 04:58:22;;;;;;;;;;;;;;;13.06;80.14;97437.48;1823447;78;20160;-82
2021/09/24 05:00:49;;;;;;;;;;;;;;;13.08;79.69;97435.84;1823433;78;20239;-82
2021/09/24 05:03:15;;;;;;;;;;;;;;;13.05;79.62;97441.88;1823108;78;20543;-82
2021/09/24 05:05:41;;;;;;;;;;;;;;;13.05;79.65;97449.48;1823326;78;20243;-82
2021/09/24 05:08:07;;;;;;;;;;;;;;;13.08;79.46;97454.87;1823309;78;21038;-82
2021/09/24 05:10:33;;;;;;;;;;;;;;;13.08;79.44;97457.03;1823154;78;20720;-82
2021/09/24 05:12:58;;;;;;;;;;;;;;;13.07;79.05;97462.77;1823377;78;20183;-83
2021/09/24 05:15:24;;;;;;;;;;;;;;;13.09;78.35;97458.64;1823310;78;20232;-82
2021/09/24 05:17:50;;;;;;;;;;;;;;;13.11;78.40;97448.80;1823920;78;20180;-82
2021/09/24 05:20:16;;;;;;;;;;;;;;;13.14;78.29;97453.05;1793677;78;20824;-82
2021/09/24 05:22:42;;;;;;;;;;;;;;;13.20;77.75;97454.58;1823367;78;20175;-82
2021/09/24 05:25:08;;;;;;;;;;;;;;;13.17;77.67;97451.09;1823431;78;20168;-82
2021/09/24 05:27:34;;;;;;;;;;;;;;;13.22;77.85;97457.78;1823163;78;20425;-82
2021/09/24 05:30:00;;;;;;;;;;;;;;;13.24;77.39;97450.14;1823461;78;20215;-82
2021/09/24 05:32:26;;;;;;;;;;;;;;;13.22;76.83;97459.70;1823403;78;21901;-82
2021/09/24 05:34:52;;;;;;;;;;;;;;;13.28;76.92;97461.75;1793644;78;20204;-82
2021/09/24 05:37:17;;;;;;;;;;;;;;;13.25;76.65;97459.91;1823467;78;20629;-82
2021/09/24 05:39:43;;;;;;;;;;;;;;;13.21;75.79;97464.91;1823144;78;20424;-82
2021/09/24 05:42:09;;;;;;;;;;;;;;;13.28;76.11;97461.19;1823184;78;20646;-82
2021/09/24 05:44:35;;;;;;;;;;;;;;;13.31;75.14;97467.36;1823224;78;21886;-82
2021/09/24 05:47:01;;;;;;;;;;;;;;;13.32;75.20;97465.44;1823453;78;20180;-82
2021/09/24 05:49:30;;;;;;;;;;;;;;;13.41;75.52;97461.66;1823179;78;20176;-83
2021/09/24 05:51:54;;;;;;;;;;;;;;;13.53;75.70;97459.18;1823374;78;20402;-83
2021/09/24 05:54:20;;;;;;;;;;;;;;;13.61;74.81;97474.52;1793940;78;20561;-83
2021/09/24 05:56:46;;;;;;;;;;;;;;;13.59;74.00;97477.55;1823565;78;21782;-83
2021/09/24 05:59:12;;;;;;;;;;;;;;;13.62;72.69;97466.59;1823190;78;20238;-82
2021/09/24 06:01:37;;;;;;;;;;;;;;;13.49;72.16;97475.88;1823371;78;20799;-82
2021/09/24 06:04:03;;;;;;;;;;;;;;;13.52;73.26;97477.99;1823227;78;20425;-82
2021/09/24 06:06:29;;;;;;;;;;;;;;;13.41;72.36;97483.98;1823545;78;20172;-82
2021/09/24 06:08:55;;;;;;;;;;;;;;;13.39;72.47;97481.58;1823219;78;21144;-82
2021/09/24 06:11:21;;;;;;;;;;;;;;;13.38;73.55;97490.86;1823574;78;20172;-82
2021/09/24 06:13:47;;;;;;;;;;;;;;;13.34;73.50;97496.69;1823436;78;20172;-82
2021/09/24 06:16:12;;;;;;;;;;;;;;;13.33;73.46;97499.17;1823616;78;20157;-82
2021/09/24 06:18:39;;;;;;;;;;;;;;;13.33;73.47;97507.86;1823639;78;20243;-82
2021/09/24 06:21:04;;;;;;;;;;;;;;;13.34;73.15;97500.77;1823323;78;21185;-82
2021/09/24 06:23:31;;;;;;;;;;;;;;;13.33;73.48;97499.70;1823404;78;20509;-82
2021/09/24 06:25:59;;;;;;;;;;;;;;;13.27;73.37;97501.76;1823257;78;20157;-82
2021/09/24 06:28:28;;;;;;;;;;;;;;;13.27;73.47;97509.92;1823371;78;20146;-83
2021/09/24 06:30:54;;;;;;;;;;;;;;;13.29;73.64;97514.48;1823516;78;20134;-82
2021/09/24 06:33:20;;;;;;;;;;;;;;;13.28;73.69;97513.45;1823506;78;21034;-82
2021/09/24 06:35:45;;;;;;;;;;;;;;;13.30;73.89;97514.73;1823188;78;20176;-82
2021/09/24 06:38:11;;;;;;;;;;;;;;;13.33;73.34;97514.66;1823502;78;20171;-82
2021/09/24 06:40:37;;;;;;;;;;;;;;;13.31;73.25;97527.22;1823325;78;20132;-82
2021/09/24 06:43:03;;;;;;;;;;;;;;;13.29;73.28;97521.30;1793574;78;20145;-82
2021/09/24 06:45:28;;;;;;;;;;;;;;;13.21;72.52;97529.63;1823319;78;21086;-82
2021/09/24 06:47:55;;;;;;;;;;;;;;;13.17;72.13;97527.27;1823466;78;20168;-82
2021/09/24 06:50:20;;;;;;;;;;;;;;;13.19;72.06;97533.23;1823447;78;20618;-82
2021/09/24 06:52:46;;;;;;;;;;;;;;;13.17;71.71;97518.30;1823432;78;20159;-82
2021/09/24 06:55:12;;;;;;;;;;;;;;;13.17;71.21;97529.98;1793861;78;20156;-82
2021/09/24 06:57:38;;;;;;;;;;;;;;;13.20;71.99;97538.11;1823602;78;21095;-82
2021/09/24 07:00:04;;;;;;;;;;;;;;;13.23;71.26;97550.53;1823088;78;20168;-82
2021/09/24 07:02:30;;;;;;;;;;;;;;;13.29;70.78;97559.39;1823489;78;20134;-82
2021/09/24 07:04:56;;;;;;;;;;;;;;;13.30;70.74;97556.11;1823198;78;20161;-82
2021/09/24 07:07:22;;;;;;;;;;;;;;;13.33;71.01;97570.45;1823441;78;20240;-82
2021/09/24 07:09:48;;;;;;;;;;;;;;;13.29;70.11;97572.19;1817539;78;21011;-82
2021/09/24 07:12:13;;;;;;;;;;;;;;;13.35;70.41;97572.33;1817315;79;20176;-82
2021/09/24 07:14:39;;;;;;;;;;;;;;;13.37;69.79;97571.45;1817146;79;20148;-82
2021/09/24 07:17:05;;;;;;;;;;;;;;;13.36;69.68;97572.57;1817403;79;20144;-82
2021/09/24 07:19:31;;;;;;;;;;;;;;;13.33;69.60;97573.17;1817158;79;20201;-82
2021/09/24 07:21:57;;;;;;;;;;;;;;;13.30;69.72;97574.59;1817480;79;21107;-82
2021/09/24 07:24:23;;;;;;;;;;;;;;;13.17;69.06;97591.75;1817166;79;20137;-82
2021/09/24 07:26:49;;;;;;;;;;;;;;;13.25;69.81;97586.98;1817352;79;20181;-82
2021/09/24 07:29:15;;;;;;;;;;;;;;;13.28;69.98;97592.34;1817341;79;20230;-82
2021/09/24 07:31:41;;;;;;;;;;;;;;;13.32;70.11;97599.58;1817572;79;20205;-82
2021/09/24 07:34:07;;;;;;;;;;;;;;;13.36;70.03;97613.39;1817451;79;21142;-82
2021/09/24 07:36:32;;;;;;;;;;;;;;;13.33;69.24;97612.09;1817555;79;20207;-82
2021/09/24 07:38:58;;;;;;;;;;;;;;;13.23;69.41;97600.86;1817483;79;20247;-82
2021/09/24 07:41:24;;;;;;;;;;;;;;;13.14;69.70;97604.03;1817278;79;20144;-82
2021/09/24 07:43:52;;;;;;;;;;;;;;;13.09;69.30;97607.44;1817825;79;20153;-82
2021/09/24 07:46:18;;;;;;;;;;;;;;;13.12;69.60;97618.50;1817501;79;21857;-82
2021/09/24 07:48:44;;;;;;;;;;;;;;;13.10;69.58;97622.09;1817340;79;20139;-82
2021/09/24 07:51:10;;;;;;;;;;;;;;;13.08;69.86;97620.80;1817489;79;20189;-82
2021/09/24 07:53:36;;;;;;;;;;;;;;;13.09;69.25;97616.95;1817414;79;20151;-82
2021/09/24 07:56:03;;;;;;;;;;;;;;;13.12;68.91;97620.41;1817269;79;20150;-82
2021/09/24 07:58:29;;;;;;;;;;;;;;;13.17;69.68;97622.48;1817802;79;21099;-82
2021/09/24 08:00:55;;;;;;;;;;;;;;;13.20;69.38;97625.17;1817261;79;20240;-82
2021/09/24 08:03:21;;;;;;;;;;;;;;;13.08;68.55;97631.11;1817519;79;20188;-82
2021/09/24 08:05:47;;;;;;;;;;;;;;;13.13;69.78;97628.27;1817779;79;20149;-82
2021/09/24 08:08:12;;;;;;;;;;;;;;;13.14;69.63;97626.34;1817423;79;20176;-82
2021/09/24 08:10:38;;;;;;;;;;;;;;;13.07;69.76;97632.20;1817439;79;21151;-82
2021/09/24 08:13:04;;;;;;;;;;;;;;;13.08;69.71;97624.88;1817843;79;20716;-82
2021/09/24 08:15:32;;;;;;;;;;;;;;;13.09;69.25;97634.08;1817425;79;20422;-82
2021/09/24 08:17:57;;;;;;;;;;;;;;;13.05;68.73;97636.34;1817583;79;20122;-82
2021/09/24 08:20:23;;;;;;;;;;;;;;;13.02;68.87;97641.04;1817363;79;20661;-82
2021/09/24 08:22:49;;;;;;;;;;;;;;;13.01;69.12;97634.80;1817466;79;21186;-82
2021/09/24 08:25:16;;;;;;;;;;;;;;;13.03;68.80;97639.38;1817189;79;20227;-82
2021/09/24 08:27:42;;;;;;;;;;;;;;;13.01;68.72;97643.52;1817453;79;20131;-82
2021/09/24 08:30:10;;;;;;;;;;;;;;;13.14;68.99;97648.91;1817397;79;20144;-82
2021/09/24 08:32:39;;;;;;;;;;;;;;;13.15;68.28;97644.28;1817589;79;20158;-82
2021/09/24 08:35:06;;;;;;;;;;;;;;;13.16;69.07;97642.64;1817409;79;21002;-82
2021/09/24 08:37:32;;;;;;;;;;;;;;;13.26;68.61;97645.72;1817085;79;20130;-83
2021/09/24 08:39:58;;;;;;;;;;;;;;;13.27;68.81;97650.05;1817265;79;20221;-82
2021/09/24 08:42:25;;;;;;;;;;;;;;;13.28;68.90;97651.65;1785960;79;20227;-81
2021/09/24 08:44:51;;;;;;;;;;;;;;;13.25;68.44;97648.99;1817449;79;20201;-82
2021/09/24 08:47:17;;;;;;;;;;;;;;;13.24;68.16;97655.55;1817469;79;21142;-82
2021/09/24 08:49:43;;;;;;;;;;;;;;;13.28;68.58;97657.65;1817334;79;20259;-83
2021/09/24 08:52:09;;;;;;;;;;;;;;;13.34;68.07;97665.41;1817559;79;20126;-83
2021/09/24 08:54:35;;;;;;;;;;;;;;;13.35;67.71;97663.48;1817279;79;20161;-83
2021/09/24 08:57:01;;;;;;;;;;;;;;;13.34;66.98;97660.52;1817510;79;20197;-82
2021/09/24 08:59:26;;;;;;;;;;;;;;;13.41;66.98;97660.87;1817286;79;20529;-82
2021/09/24 09:02:02;;;;;;;;;;;;;;;13.49;66.78;97665.03;1817402;79;20413;-82
2021/09/24 09:04:41;;;;;;;;;;;;;;;13.58;66.70;97669.19;1817323;79;20429;-82
2021/09/24 09:07:08;;;;;;;;;;;;;;;13.69;65.77;97666.50;1817683;79;20138;-83
2021/09/24 09:09:36;;;;;;;;;;;;;;;13.70;64.61;97670.83;1799777;78;20141;-83
2021/09/24 09:12:16;;;;;;;;;;;;;;;13.69;65.64;97670.59;1788341;80;21154;-82
2021/09/24 09:14:42;;;;;;;;;;;;;;;13.70;65.59;97667.31;1781885;80;20084;-82
2021/09/24 09:17:27;;;;;;;;;;;;;;;13.66;65.55;97664.94;1788386;80;20125;-83
2021/09/24 09:20:14;;;;;;;;;;;;;;;13.72;65.41;97666.44;1788291;80;20417;-82
2021/09/24 09:22:41;;;;;;;;;;;;;;;13.68;64.79;97673.06;1788305;80;20152;-82
2021/09/24 09:25:12;;;;;;;;;;;;;;;13.63;65.02;97673.17;1788167;80;20623;-82
2021/09/24 09:27:38;;;;;;;;;;;;;;;13.65;64.32;97678.30;1788249;80;20192;-82
2021/09/24 09:30:11;;;;;;;;;;;;;;;13.58;64.23;97674.64;1788343;80;20223;-82
2021/09/24 09:32:36;;;;;;;;;;;;;;;13.70;65.09;97670.83;1760070;80;20117;-82
2021/09/24 09:35:02;;;;;;;;;;;;;;;13.70;65.35;97673.55;1788322;80;20140;-82
2021/09/24 09:37:28;;;;;;;;;;;;;;;13.78;64.96;97674.19;1788522;80;21157;-82
2021/09/24 09:40:05;;;;;;;;;;;;;;;13.80;64.83;97675.23;1788250;80;20408;-83
2021/09/24 09:42:33;;;;;;;;;;;;;;;13.80;63.70;97679.31;1788335;80;20200;-83
2021/09/24 09:45:00;;;;;;;;;;;;;;;13.65;64.54;97691.91;1787319;79;20105;-82
2021/09/24 09:47:32;;;;;;;;;;;;;;;13.63;64.28;97681.89;1789030;80;20156;-83
2021/09/24 09:50:24;;;;;;;;;;;;;;;13.64;64.87;97687.59;1788335;80;20995;-83
2021/09/24 09:53:05;;;;;;;;;;;;;;;13.71;64.66;97686.05;1786942;80;20421;-83
2021/09/24 09:55:33;;;;;;;;;;;;;;;13.80;64.66;97696.45;1788210;80;20152;-83
2021/09/24 09:58:02;;;;;;;;;;;;;;;13.78;63.21;97700.61;1788431;80;20161;-83
2021/09/24 10:00:29;;;;;;;;;;;;;;;13.91;64.10;97711.19;1788465;80;20125;-83
2021/09/24 10:03:10;;;;;;;;;;;;;;;14.00;64.06;97710.70;1788469;80;21047;-83
2021/09/24 10:05:41;;;;;;;;;;;;;;;14.14;64.03;97713.38;1788081;80;20129;-82
2021/09/24 10:08:27;;;;;;;;;;;;;;;14.18;63.33;97725.25;1788292;80;20137;-83
2021/09/24 10:11:04;;;;;;;;;;;;;;;14.26;63.10;97719.86;1793687;78;20162;-83
2021/09/24 10:13:36;;;;;;;;;;;;;;;14.22;62.11;97720.25;1823456;78;20131;-82
2021/09/24 10:16:03;;;;;;;;;;;;;;;14.35;62.65;97726.17;1823321;78;20987;-83
2021/09/24 10:18:30;;;;;;;;;;;;;;;14.34;61.66;97731.38;1823471;78;20154;-82
2021/09/24 10:20:55;;;;;;;;;;;;;;;14.44;61.78;97743.14;1823214;78;20390;-82
2021/09/24 10:23:21;;;;;;;;;;;;;;;14.39;61.48;97729.89;1823490;78;20168;-82
2021/09/24 10:25:50;;;;;;;;;;;;;;;14.49;60.84;97734.88;1823383;78;20168;-83
2021/09/24 10:28:16;;;;;;;;;;;;;;;14.56;61.07;97734.67;1793823;78;21134;-83
2021/09/24 10:30:42;;;;;;;;;;;;;;;14.45;60.44;97729.25;1793800;78;20187;-83
2021/09/24 10:33:11;;;;;;;;;;;;;;;14.55;61.51;97728.98;1823588;78;20215;-83
2021/09/24 10:35:50;;;;;;;;;;;;;;;14.65;61.86;97732.80;1823299;78;20130;-83
2021/09/24 10:38:17;;;;;;;;;;;;;;;14.69;61.29;97734.33;1823667;78;20154;-83
2021/09/24 10:41:03;;;;;;;;;;;;;;;14.71;60.67;97731.31;1823251;78;21027;-82
2021/09/24 10:43:48;;;;;;;;;;;;;;;14.69;60.56;97726.16;1823074;78;20126;-82
2021/09/24 10:46:32;;;;;;;;;;;;;;;14.56;61.48;97728.42;1793975;78;20149;-82
2021/09/24 10:49:19;;;;;;;;;;;;;;;14.56;61.66;97732.52;1794356;78;20405;-82
2021/09/24 10:51:47;;;;;;;;;;;;;;;14.63;61.09;97745.15;1823767;78;20177;-82
2021/09/24 10:54:20;;;;;;;;;;;;;;;14.65;60.49;97741.55;1794027;78;21279;-82
2021/09/24 10:57:01;;;;;;;;;;;;;;;14.60;60.32;97745.75;1823486;78;20449;-82
2021/09/24 10:59:33;;;;;;;;;;;;;;;14.58;61.29;97747.44;1819695;78;20123;-83
2021/09/24 11:01:59;;;;;;;;;;;;;;;14.67;60.60;97741.47;1795254;78;20405;-82
2021/09/24 11:04:44;;;;;;;;;;;;;;;14.67;60.52;97741.47;1823627;78;20176;-82
2021/09/24 11:07:11;;;;;;;;;;;;;;;14.66;60.55;97746.68;1794012;78;21289;-83
2021/09/24 11:09:52;;;;;;;;;;;;;;;14.61;60.67;97750.09;1823344;78;20142;-82
2021/09/24 11:12:18;;;;;;;;;;;;;;;14.62;60.68;97743.55;1794268;78;20149;-83
2021/09/24 11:14:43;;;;;;;;;;;;;;;14.68;61.07;97740.34;1823632;78;20203;-83
2021/09/24 11:17:11;;;;;;;;;;;;;;;14.69;61.14;97745.23;1823628;78;20224;-82
2021/09/24 11:19:43;;;;;;;;;;;;;;;14.75;61.21;97739.91;1823493;78;20983;-82
2021/09/24 11:22:31;;;;;;;;;;;;;;;14.88;60.68;97741.75;1823499;78;20130;-83
2021/09/24 11:25:00;;;;;;;;;;;;;;;14.99;61.01;97747.72;1816583;78;20381;-82
2021/09/24 11:27:33;;;;;;;;;;;;;;;15.13;61.09;97744.91;1823545;78;20499;-82
2021/09/24 11:30:05;;;;;;;;;;;;;;;15.14;60.86;97739.69;1823034;78;20188;-83
2021/09/24 11:32:32;;;;;;;;;;;;;;;15.16;60.99;97740.16;1794316;78;21650;-82
2021/09/24 11:34:58;;;;;;;;;;;;;;;15.17;60.75;97749.95;1823351;78;20150;-82
2021/09/24 11:37:29;;;;;;;;;;;;;;;15.10;60.40;97745.52;1823603;78;20180;-82
2021/09/24 11:40:07;;;;;;;;;;;;;;;15.11;60.35;97743.02;1823458;78;20146;-83
2021/09/24 11:42:38;;;;;;;;;;;;;;;15.18;59.60;97737.36;1824186;78;20126;-83
2021/09/24 11:45:06;;;;;;;;;;;;;;;15.12;59.94;97744.63;1823594;78;21048;-83
2021/09/24 11:47:33;;;;;;;;;;;;;;;15.10;59.83;97757.79;1823476;78;20097;-82
2021/09/24 11:50:04;;;;;;;;;;;;;;;15.15;59.61;97753.01;1823469;78;20150;-83
2021/09/24 11:52:48;;;;;;;;;;;;;;;15.17;59.81;97754.85;1823684;78;20405;-83
2021/09/24 11:55:23;;;;;;;;;;;;;;;15.20;60.03;97746.02;1823505;78;20157;-83
2021/09/24 11:57:59;;;;;;;;;;;;;;;15.18;59.68;97744.74;1794564;78;21013;-82
2021/09/24 12:00:25;;;;;;;;;;;;;;;15.25;59.77;97745.09;1823376;78;20130;-83
2021/09/24 12:03:14;;;;;;;;;;;;;;;15.31;59.77;97743.03;1793784;78;20148;-83
2021/09/24 12:05:41;;;;;;;;;;;;;;;15.36;59.08;97739.57;1823323;78;20142;-82
2021/09/24 12:08:17;;;;;;;;;;;;;;;15.33;58.76;97752.50;1823722;78;20429;-83
2021/09/24 12:10:42;;;;;;;;;;;;;;;15.31;58.09;97731.55;1818783;78;21106;-83
2021/09/24 12:13:14;;;;;;;;;;;;;;;15.29;58.06;97739.23;1817653;79;20207;-82
2021/09/24 12:15:58;;;;;;;;;;;;;;;15.37;57.81;97735.72;1817543;79;20363;-83
2021/09/24 12:18:31;;;;;;;;;;;;;;;15.51;56.98;97735.03;1818295;79;20134;-83
2021/09/24 12:21:00;;;;;;;;;;;;;;;15.61;57.45;97742.71;1816446;79;20150;-83
2021/09/24 12:23:27;;;;;;;;;;;;;;;15.74;57.41;97733.02;1817268;79;21193;-82
2021/09/24 12:25:58;;;;;;;;;;;;;;;15.93;58.17;97735.44;1785829;79;20408;-82
2021/09/24 12:28:23;;;;;;;;;;;;;;;16.08;56.82;97732.79;1814901;79;20198;-82
2021/09/24 12:30:49;;;;;;;;;;;;;;;16.05;56.64;97747.08;1817309;79;20137;-83
2021/09/24 12:33:15;;;;;;;;;;;;;;;16.03;56.34;97731.58;1818072;79;20180;-83
2021/09/24 12:35:41;;;;;;;;;;;;;;;16.08;56.24;97745.09;1817388;79;21293;-83
2021/09/24 12:38:26;;;;;;;;;;;;;;;16.13;55.10;97745.47;1785972;79;20480;-83
2021/09/24 12:41:14;;;;;;;;;;;;;;;16.04;55.53;97749.58;1817304;79;20082;-82
2021/09/24 12:43:40;;;;;;;;;;;;;;;15.99;54.05;97742.36;1817437;79;20181;-83
2021/09/24 12:46:06;;;;;;;;;;;;;;;15.88;54.52;97742.98;1817263;79;20180;-83
2021/09/24 12:48:38;;;;;;;;;;;;;;;15.86;54.07;97743.30;1817227;79;21046;-83
2021/09/24 12:51:04;;;;;;;;;;;;;;;15.66;55.10;97751.56;1816344;79;20395;-83